sensor_id;sensor_type;location;lat;lon;timestamp;temperature;humidity
22850;DHT22;11591;44.792;10.358;2023-02-13T00:01:56;4.90;99.90
22850;DHT22;11591;44.792;10.358;2023-02-13T00:04:22;5.00;99.90
22850;DHT22;11591;44.792;10.358;2023-02-13T00:06:47;5.00;99.90
22850;DHT22;11591;44.792;10.358;2023-02-13T00:09:14;5.00;99.90
22850;DHT22;11591;44.792;10.358;2023-02-13T00:11:40;4.90;99.90
22850;DHT22;11591;44.792;10.358;2023-02-13T00:14:06;5.00;99.90
22850;DHT22;11591;44.792;10.358;2023-02-13T00:16:32;4.70;99.90
22850;DHT22;11591;44.792;10.358;2023-02-13T00:18:58;4.70;99.90
22850;DHT22;11591;44.792;10.358;2023-02-13T00:21:24;4.90;99.90
22850;DHT22;11591;44.792;10.358;2023-02-13T00:23:50;4.90;99.90
22850;DHT22;11591;44.792;10.358;2023-02-13T00:26:16;4.90;99.90
22850;DHT22;11591;44.792;10.358;2023-02-13T00:28:44;5.00;99.90
22850;DHT22;11591;44.792;10.358;2023-02-13T00:31:12;4.90;99.90
22850;DHT22;11591;44.792;10.358;2023-02-13T00:33:39;4.90;99.90
22850;DHT22;11591;44.792;10.358;2023-02-13T00:36:07;4.80;99.90
22850;DHT22;11591;44.792;10.358;2023-02-13T00:38:34;4.80;99.90
22850;DHT22;11591;44.792;10.358;2023-02-13T00:41:00;4.80;99.90
22850;DHT22;11591;44.792;10.358;2023-02-13T00:43:27;4.70;99.90
22850;DHT22;11591;44.792;10.358;2023-02-13T00:45:53;4.70;99.90
22850;DHT22;11591;44.792;10.358;2023-02-13T00:48:18;4.60;99.90
22850;DHT22;11591;44.792;10.358;2023-02-13T00:50:46;4.70;99.90
22850;DHT22;11591;44.792;10.358;2023-02-13T00:53:12;4.80;99.90
22850;DHT22;11591;44.792;10.358;2023-02-13T00:55:38;4.70;99.90
22850;DHT22;11591;44.792;10.358;2023-02-13T00:58:04;4.60;99.90
22850;DHT22;11591;44.792;10.358;2023-02-13T01:00:29;4.40;99.90
22850;DHT22;11591;44.792;10.358;2023-02-13T01:02:55;4.50;99.90
22850;DHT22;11591;44.792;10.358;2023-02-13T01:05:21;4.50;99.90
22850;DHT22;11591;44.792;10.358;2023-02-13T01:07:47;4.40;99.90
22850;DHT22;11591;44.792;10.358;2023-02-13T01:10:12;4.40;99.90
22850;DHT22;11591;44.792;10.358;2023-02-13T01:12:38;4.30;99.90
22850;DHT22;11591;44.792;10.358;2023-02-13T01:15:06;4.30;99.90
22850;DHT22;11591;44.792;10.358;2023-02-13T01:17:31;4.20;99.90
22850;DHT22;11591;44.792;10.358;2023-02-13T01:19:57;4.20;99.90
22850;DHT22;11591;44.792;10.358;2023-02-13T01:22:23;4.20;99.90
22850;DHT22;11591;44.792;10.358;2023-02-13T01:24:49;4.20;99.90
22850;DHT22;11591;44.792;10.358;2023-02-13T01:27:15;4.20;99.90
22850;DHT22;11591;44.792;10.358;2023-02-13T01:29:41;4.20;99.90
22850;DHT22;11591;44.792;10.358;2023-02-13T01:32:07;4.30;99.90
22850;DHT22;11591;44.792;10.358;2023-02-13T01:34:33;4.40;99.90
22850;DHT22;11591;44.792;10.358;2023-02-13T01:36:59;4.30;99.90
22850;DHT22;11591;44.792;10.358;2023-02-13T01:39:25;4.40;99.90
22850;DHT22;11591;44.792;10.358;2023-02-13T01:41:50;4.40;99.90
22850;DHT22;11591;44.792;10.358;2023-02-13T01:44:45;4.40;99.90
22850;DHT22;11591;44.792;10.358;2023-02-13T01:47:25;4.30;99.90
22850;DHT22;11591;44.792;10.358;2023-02-13T01:50:18;4.30;99.90
22850;DHT22;11591;44.792;10.358;2023-02-13T01:52:57;4.30;99.90
22850;DHT22;11591;44.792;10.358;2023-02-13T01:55:25;4.20;99.90
22850;DHT22;11591;44.792;10.358;2023-02-13T01:57:57;4.20;99.90
22850;DHT22;11591;44.792;10.358;2023-02-13T02:00:24;4.20;99.90
22850;DHT22;11591;44.792;10.358;2023-02-13T02:02:54;4.20;99.90
22850;DHT22;11591;44.792;10.358;2023-02-13T02:05:27;4.20;99.90
22850;DHT22;11591;44.792;10.358;2023-02-13T02:07:56;4.20;99.90
22850;DHT22;11591;44.792;10.358;2023-02-13T02:10:23;4.10;99.90
22850;DHT22;11591;44.792;10.358;2023-02-13T02:13:15;4.00;99.90
22850;DHT22;11591;44.792;10.358;2023-02-13T02:15:43;4.10;99.90
22850;DHT22;11591;44.792;10.358;2023-02-13T02:18:27;4.00;99.90
22850;DHT22;11591;44.792;10.358;2023-02-13T02:27:25;4.00;99.90
22850;DHT22;11591;44.792;10.358;2023-02-13T02:36:14;3.80;99.90
22850;DHT22;11591;44.792;10.358;2023-02-13T02:44:16;3.80;99.90
22850;DHT22;11591;44.792;10.358;2023-02-13T02:47:30;3.90;99.90
22850;DHT22;11591;44.792;10.358;2023-02-13T02:58:17;3.70;99.90
22850;DHT22;11591;44.792;10.358;2023-02-13T03:01:05;3.60;99.90
22850;DHT22;11591;44.792;10.358;2023-02-13T03:03:51;3.60;99.90
22850;DHT22;11591;44.792;10.358;2023-02-13T03:06:51;3.60;99.90
22850;DHT22;11591;44.792;10.358;2023-02-13T03:09:31;3.60;99.90
22850;DHT22;11591;44.792;10.358;2023-02-13T03:12:20;3.50;99.90
22850;DHT22;11591;44.792;10.358;2023-02-13T03:15:06;3.50;99.90
22850;DHT22;11591;44.792;10.358;2023-02-13T03:17:32;3.50;99.90
22850;DHT22;11591;44.792;10.358;2023-02-13T03:23:22;3.40;99.90
22850;DHT22;11591;44.792;10.358;2023-02-13T03:29:10;3.30;99.90
22850;DHT22;11591;44.792;10.358;2023-02-13T03:32:11;3.20;99.90
22850;DHT22;11591;44.792;10.358;2023-02-13T03:34:49;3.10;99.90
22850;DHT22;11591;44.792;10.358;2023-02-13T03:37:38;3.10;99.90
22850;DHT22;11591;44.792;10.358;2023-02-13T03:40:51;3.00;99.90
22850;DHT22;11591;44.792;10.358;2023-02-13T03:46:39;3.00;99.90
22850;DHT22;11591;44.792;10.358;2023-02-13T03:49:10;2.90;99.90
22850;DHT22;11591;44.792;10.358;2023-02-13T03:52:02;2.90;99.90
22850;DHT22;11591;44.792;10.358;2023-02-13T03:54:42;2.80;99.90
22850;DHT22;11591;44.792;10.358;2023-02-13T03:57:29;2.90;99.90
22850;DHT22;11591;44.792;10.358;2023-02-13T04:00:15;2.90;99.90
22850;DHT22;11591;44.792;10.358;2023-02-13T04:03:04;2.90;99.90
22850;DHT22;11591;44.792;10.358;2023-02-13T04:05:38;2.90;99.90
22850;DHT22;11591;44.792;10.358;2023-02-13T04:08:05;2.90;99.90
22850;DHT22;11591;44.792;10.358;2023-02-13T04:10:33;2.90;99.90
22850;DHT22;11591;44.792;10.358;2023-02-13T04:15:36;2.90;99.90
22850;DHT22;11591;44.792;10.358;2023-02-13T04:18:11;2.90;99.90
22850;DHT22;11591;44.792;10.358;2023-02-13T04:20:38;2.90;99.90
22850;DHT22;11591;44.792;10.358;2023-02-13T04:23:09;2.90;99.90
22850;DHT22;11591;44.792;10.358;2023-02-13T04:25:37;3.00;99.90
22850;DHT22;11591;44.792;10.358;2023-02-13T04:28:03;2.90;99.90
22850;DHT22;11591;44.792;10.358;2023-02-13T04:30:30;2.90;99.90
22850;DHT22;11591;44.792;10.358;2023-02-13T04:32:56;2.90;99.90
22850;DHT22;11591;44.792;10.358;2023-02-13T04:35:21;2.90;99.90
22850;DHT22;11591;44.792;10.358;2023-02-13T04:37:47;2.90;99.90
22850;DHT22;11591;44.792;10.358;2023-02-13T04:40:13;2.90;99.90
22850;DHT22;11591;44.792;10.358;2023-02-13T04:42:39;2.80;99.90
22850;DHT22;11591;44.792;10.358;2023-02-13T04:45:05;2.90;99.90
22850;DHT22;11591;44.792;10.358;2023-02-13T04:47:31;2.80;99.90
22850;DHT22;11591;44.792;10.358;2023-02-13T04:49:56;2.80;99.90
22850;DHT22;11591;44.792;10.358;2023-02-13T04:52:22;2.80;99.90
22850;DHT22;11591;44.792;10.358;2023-02-13T04:54:48;2.80;99.90
22850;DHT22;11591;44.792;10.358;2023-02-13T04:57:14;2.70;99.90
22850;DHT22;11591;44.792;10.358;2023-02-13T04:59:40;2.70;99.90
22850;DHT22;11591;44.792;10.358;2023-02-13T05:02:06;2.70;99.90
22850;DHT22;11591;44.792;10.358;2023-02-13T05:04:32;2.80;99.90
22850;DHT22;11591;44.792;10.358;2023-02-13T05:06:58;2.80;99.90
22850;DHT22;11591;44.792;10.358;2023-02-13T05:09:23;2.70;99.90
22850;DHT22;11591;44.792;10.358;2023-02-13T05:11:53;2.70;99.90
22850;DHT22;11591;44.792;10.358;2023-02-13T05:14:19;2.80;99.90
22850;DHT22;11591;44.792;10.358;2023-02-13T05:16:46;2.70;99.90
22850;DHT22;11591;44.792;10.358;2023-02-13T05:19:12;2.70;99.90
22850;DHT22;11591;44.792;10.358;2023-02-13T05:21:38;2.80;99.90
22850;DHT22;11591;44.792;10.358;2023-02-13T05:24:22;2.80;99.90
22850;DHT22;11591;44.792;10.358;2023-02-13T05:26:48;2.80;99.90
22850;DHT22;11591;44.792;10.358;2023-02-13T05:29:13;2.80;99.90
22850;DHT22;11591;44.792;10.358;2023-02-13T05:31:55;2.80;99.90
22850;DHT22;11591;44.792;10.358;2023-02-13T05:34:23;2.80;99.90
22850;DHT22;11591;44.792;10.358;2023-02-13T05:36:50;2.80;99.90
22850;DHT22;11591;44.792;10.358;2023-02-13T05:39:16;2.80;99.90
22850;DHT22;11591;44.792;10.358;2023-02-13T05:41:42;2.90;99.90
22850;DHT22;11591;44.792;10.358;2023-02-13T05:44:09;2.90;99.90
22850;DHT22;11591;44.792;10.358;2023-02-13T05:46:37;2.90;99.90
22850;DHT22;11591;44.792;10.358;2023-02-13T05:49:04;2.90;99.90
22850;DHT22;11591;44.792;10.358;2023-02-13T05:51:29;2.90;99.90
22850;DHT22;11591;44.792;10.358;2023-02-13T05:53:55;2.90;99.90
22850;DHT22;11591;44.792;10.358;2023-02-13T05:56:21;2.90;99.90
22850;DHT22;11591;44.792;10.358;2023-02-13T05:58:50;2.80;99.90
22850;DHT22;11591;44.792;10.358;2023-02-13T06:01:16;2.80;99.90
22850;DHT22;11591;44.792;10.358;2023-02-13T06:03:42;2.80;99.90
22850;DHT22;11591;44.792;10.358;2023-02-13T06:06:08;2.70;99.90
22850;DHT22;11591;44.792;10.358;2023-02-13T06:08:34;2.70;99.90
22850;DHT22;11591;44.792;10.358;2023-02-13T06:11:00;2.70;99.90
22850;DHT22;11591;44.792;10.358;2023-02-13T06:13:26;2.70;99.90
22850;DHT22;11591;44.792;10.358;2023-02-13T06:15:51;2.70;99.90
22850;DHT22;11591;44.792;10.358;2023-02-13T06:18:17;2.70;99.90
22850;DHT22;11591;44.792;10.358;2023-02-13T06:20:43;2.70;99.90
22850;DHT22;11591;44.792;10.358;2023-02-13T06:23:09;2.70;99.90
22850;DHT22;11591;44.792;10.358;2023-02-13T06:25:35;2.70;99.90
22850;DHT22;11591;44.792;10.358;2023-02-13T06:28:02;2.60;99.90
22850;DHT22;11591;44.792;10.358;2023-02-13T06:30:28;2.70;99.90
22850;DHT22;11591;44.792;10.358;2023-02-13T06:32:54;2.70;99.90
22850;DHT22;11591;44.792;10.358;2023-02-13T06:35:20;2.60;99.90
22850;DHT22;11591;44.792;10.358;2023-02-13T06:37:46;2.60;99.90
22850;DHT22;11591;44.792;10.358;2023-02-13T06:40:14;2.70;99.90
22850;DHT22;11591;44.792;10.358;2023-02-13T06:42:44;2.70;99.90
22850;DHT22;11591;44.792;10.358;2023-02-13T06:45:11;2.70;99.90
22850;DHT22;11591;44.792;10.358;2023-02-13T06:47:41;2.70;99.90
22850;DHT22;11591;44.792;10.358;2023-02-13T06:50:08;2.80;99.90
22850;DHT22;11591;44.792;10.358;2023-02-13T06:52:34;2.80;99.90
22850;DHT22;11591;44.792;10.358;2023-02-13T06:55:00;2.80;99.90
22850;DHT22;11591;44.792;10.358;2023-02-13T06:57:26;2.80;99.90
22850;DHT22;11591;44.792;10.358;2023-02-13T06:59:52;2.80;99.90
22850;DHT22;11591;44.792;10.358;2023-02-13T07:02:18;2.90;99.90
22850;DHT22;11591;44.792;10.358;2023-02-13T07:04:43;2.90;99.90
22850;DHT22;11591;44.792;10.358;2023-02-13T07:07:09;2.90;99.90
22850;DHT22;11591;44.792;10.358;2023-02-13T07:09:35;3.00;99.90
22850;DHT22;11591;44.792;10.358;2023-02-13T07:12:03;3.00;99.90
22850;DHT22;11591;44.792;10.358;2023-02-13T07:14:29;3.00;99.90
22850;DHT22;11591;44.792;10.358;2023-02-13T07:16:55;3.10;99.90
22850;DHT22;11591;44.792;10.358;2023-02-13T07:19:21;3.10;99.90
22850;DHT22;11591;44.792;10.358;2023-02-13T07:21:47;3.10;99.90
22850;DHT22;11591;44.792;10.358;2023-02-13T07:24:12;3.20;99.90
22850;DHT22;11591;44.792;10.358;2023-02-13T07:26:38;3.20;99.90
22850;DHT22;11591;44.792;10.358;2023-02-13T07:29:04;3.20;99.90
22850;DHT22;11591;44.792;10.358;2023-02-13T07:31:34;3.20;99.90
22850;DHT22;11591;44.792;10.358;2023-02-13T07:34:00;3.30;99.90
22850;DHT22;11591;44.792;10.358;2023-02-13T07:36:27;3.30;99.90
22850;DHT22;11591;44.792;10.358;2023-02-13T07:38:53;3.40;99.90
22850;DHT22;11591;44.792;10.358;2023-02-13T07:41:19;3.50;99.90
22850;DHT22;11591;44.792;10.358;2023-02-13T07:43:45;3.50;99.90
22850;DHT22;11591;44.792;10.358;2023-02-13T07:46:11;3.60;99.90
22850;DHT22;11591;44.792;10.358;2023-02-13T07:48:37;3.60;99.90
22850;DHT22;11591;44.792;10.358;2023-02-13T07:51:04;3.60;99.90
22850;DHT22;11591;44.792;10.358;2023-02-13T07:53:30;3.70;99.90
22850;DHT22;11591;44.792;10.358;2023-02-13T07:55:56;3.70;99.90
22850;DHT22;11591;44.792;10.358;2023-02-13T07:58:22;3.80;99.90
22850;DHT22;11591;44.792;10.358;2023-02-13T08:00:48;3.80;99.90
22850;DHT22;11591;44.792;10.358;2023-02-13T08:03:13;3.90;99.90
22850;DHT22;11591;44.792;10.358;2023-02-13T08:05:39;3.90;99.90
22850;DHT22;11591;44.792;10.358;2023-02-13T08:08:06;4.00;99.90
22850;DHT22;11591;44.792;10.358;2023-02-13T08:10:31;4.00;99.90
22850;DHT22;11591;44.792;10.358;2023-02-13T08:13:16;4.10;99.90
22850;DHT22;11591;44.792;10.358;2023-02-13T08:15:42;4.20;99.90
22850;DHT22;11591;44.792;10.358;2023-02-13T08:18:11;4.20;99.90
22850;DHT22;11591;44.792;10.358;2023-02-13T08:20:37;4.30;99.90
22850;DHT22;11591;44.792;10.358;2023-02-13T08:23:09;4.30;99.90
22850;DHT22;11591;44.792;10.358;2023-02-13T08:25:37;4.40;99.90
22850;DHT22;11591;44.792;10.358;2023-02-13T08:28:04;4.40;99.90
22850;DHT22;11591;44.792;10.358;2023-02-13T08:30:30;4.50;99.90
22850;DHT22;11591;44.792;10.358;2023-02-13T08:32:56;4.50;99.90
22850;DHT22;11591;44.792;10.358;2023-02-13T08:35:23;4.60;99.90
22850;DHT22;11591;44.792;10.358;2023-02-13T08:37:52;4.60;99.90
22850;DHT22;11591;44.792;10.358;2023-02-13T08:40:18;4.70;99.90
22850;DHT22;11591;44.792;10.358;2023-02-13T08:42:44;4.70;99.90
22850;DHT22;11591;44.792;10.358;2023-02-13T08:45:10;4.70;99.90
22850;DHT22;11591;44.792;10.358;2023-02-13T08:47:37;4.70;99.90
22850;DHT22;11591;44.792;10.358;2023-02-13T08:50:04;4.70;99.90
22850;DHT22;11591;44.792;10.358;2023-02-13T08:52:30;4.80;99.90
22850;DHT22;11591;44.792;10.358;2023-02-13T08:54:56;4.80;99.90
22850;DHT22;11591;44.792;10.358;2023-02-13T08:57:22;4.80;99.90
22850;DHT22;11591;44.792;10.358;2023-02-13T08:59:48;4.90;99.90
22850;DHT22;11591;44.792;10.358;2023-02-13T09:02:13;4.90;99.90
22850;DHT22;11591;44.792;10.358;2023-02-13T09:04:40;4.90;99.90
22850;DHT22;11591;44.792;10.358;2023-02-13T09:07:05;5.00;99.90
22850;DHT22;11591;44.792;10.358;2023-02-13T09:09:31;5.10;99.90
22850;DHT22;11591;44.792;10.358;2023-02-13T09:11:57;5.10;99.90
22850;DHT22;11591;44.792;10.358;2023-02-13T09:14:23;5.10;99.90
22850;DHT22;11591;44.792;10.358;2023-02-13T09:16:49;5.20;99.90
22850;DHT22;11591;44.792;10.358;2023-02-13T09:19:15;5.20;99.90
22850;DHT22;11591;44.792;10.358;2023-02-13T09:21:41;5.30;99.90
22850;DHT22;11591;44.792;10.358;2023-02-13T09:24:08;5.40;99.90
22850;DHT22;11591;44.792;10.358;2023-02-13T09:26:34;5.40;99.90
22850;DHT22;11591;44.792;10.358;2023-02-13T09:29:00;5.40;99.90
22850;DHT22;11591;44.792;10.358;2023-02-13T09:31:26;5.50;99.90
22850;DHT22;11591;44.792;10.358;2023-02-13T09:33:52;5.60;99.90
22850;DHT22;11591;44.792;10.358;2023-02-13T09:36:20;5.60;99.90
22850;DHT22;11591;44.792;10.358;2023-02-13T09:38:47;5.70;99.90
22850;DHT22;11591;44.792;10.358;2023-02-13T09:41:22;5.70;99.90
22850;DHT22;11591;44.792;10.358;2023-02-13T09:43:55;5.70;99.90
22850;DHT22;11591;44.792;10.358;2023-02-13T09:46:32;5.80;99.90
22850;DHT22;11591;44.792;10.358;2023-02-13T09:49:02;5.80;99.90
22850;DHT22;11591;44.792;10.358;2023-02-13T09:51:53;5.90;99.90
22850;DHT22;11591;44.792;10.358;2023-02-13T09:54:20;6.00;99.90
22850;DHT22;11591;44.792;10.358;2023-02-13T09:57:11;6.00;99.90
22850;DHT22;11591;44.792;10.358;2023-02-13T10:05:20;6.10;99.90
22850;DHT22;11591;44.792;10.358;2023-02-13T10:16:07;6.40;99.90
22850;DHT22;11591;44.792;10.358;2023-02-13T10:18:52;6.50;99.90
22850;DHT22;11591;44.792;10.358;2023-02-13T10:21:23;6.50;99.90
22850;DHT22;11591;44.792;10.358;2023-02-13T10:24:00;6.60;99.90
22850;DHT22;11591;44.792;10.358;2023-02-13T10:26:34;6.60;99.90
22850;DHT22;11591;44.792;10.358;2023-02-13T10:29:14;6.70;99.90
22850;DHT22;11591;44.792;10.358;2023-02-13T10:32:03;6.70;99.90
22850;DHT22;11591;44.792;10.358;2023-02-13T10:34:35;6.80;99.90
22850;DHT22;11591;44.792;10.358;2023-02-13T10:37:02;6.80;99.90
22850;DHT22;11591;44.792;10.358;2023-02-13T10:39:30;6.90;99.90
22850;DHT22;11591;44.792;10.358;2023-02-13T10:53:21;7.10;99.90
22850;DHT22;11591;44.792;10.358;2023-02-13T11:02:02;7.30;99.90
22850;DHT22;11591;44.792;10.358;2023-02-13T11:04:34;7.40;99.90
22850;DHT22;11591;44.792;10.358;2023-02-13T11:07:02;7.50;99.90
22850;DHT22;11591;44.792;10.358;2023-02-13T11:09:33;7.50;99.90
22850;DHT22;11591;44.792;10.358;2023-02-13T11:12:28;7.60;99.90
22850;DHT22;11591;44.792;10.358;2023-02-13T11:14:57;7.70;99.90
22850;DHT22;11591;44.792;10.358;2023-02-13T11:17:25;7.80;99.90
22850;DHT22;11591;44.792;10.358;2023-02-13T11:19:54;7.80;99.90
22850;DHT22;11591;44.792;10.358;2023-02-13T11:22:39;7.90;99.90
22850;DHT22;11591;44.792;10.358;2023-02-13T11:25:21;8.00;99.90
22850;DHT22;11591;44.792;10.358;2023-02-13T11:27:49;8.00;99.90
22850;DHT22;11591;44.792;10.358;2023-02-13T11:30:35;8.00;99.90
22850;DHT22;11591;44.792;10.358;2023-02-13T11:33:18;8.00;99.90
22850;DHT22;11591;44.792;10.358;2023-02-13T11:35:46;8.10;99.90
22850;DHT22;11591;44.792;10.358;2023-02-13T11:40:51;8.30;99.90
22850;DHT22;11591;44.792;10.358;2023-02-13T11:43:29;8.40;99.90
22850;DHT22;11591;44.792;10.358;2023-02-13T11:46:23;8.50;99.90
22850;DHT22;11591;44.792;10.358;2023-02-13T11:49:00;8.60;99.90
22850;DHT22;11591;44.792;10.358;2023-02-13T11:51:47;8.50;99.90
22850;DHT22;11591;44.792;10.358;2023-02-13T11:57:36;8.60;99.90
22850;DHT22;11591;44.792;10.358;2023-02-13T11:59:43;8.70;99.90
22850;DHT22;11591;44.792;10.358;2023-02-13T12:02:13;8.70;99.90
22850;DHT22;11591;44.792;10.358;2023-02-13T12:04:40;8.80;99.90
22850;DHT22;11591;44.792;10.358;2023-02-13T12:07:21;8.80;99.90
22850;DHT22;11591;44.792;10.358;2023-02-13T12:10:15;8.90;99.90
22850;DHT22;11591;44.792;10.358;2023-02-13T12:12:51;8.90;99.90
22850;DHT22;11591;44.792;10.358;2023-02-13T12:15:30;9.00;99.90
22850;DHT22;11591;44.792;10.358;2023-02-13T12:18:18;9.00;99.90
22850;DHT22;11591;44.792;10.358;2023-02-13T12:24:38;9.10;99.90
22850;DHT22;11591;44.792;10.358;2023-02-13T12:26:38;9.20;99.90
22850;DHT22;11591;44.792;10.358;2023-02-13T12:42:39;9.40;99.90
22850;DHT22;11591;44.792;10.358;2023-02-13T12:45:42;9.50;99.90
22850;DHT22;11591;44.792;10.358;2023-02-13T12:48:17;9.50;99.90
22850;DHT22;11591;44.792;10.358;2023-02-13T12:57:14;9.70;99.90
22850;DHT22;11591;44.792;10.358;2023-02-13T13:14:13;10.20;99.90
22850;DHT22;11591;44.792;10.358;2023-02-13T13:27:48;10.60;99.90
22850;DHT22;11591;44.792;10.358;2023-02-13T13:30:28;10.60;99.90
22850;DHT22;11591;44.792;10.358;2023-02-13T13:33:03;10.70;99.90
22850;DHT22;11591;44.792;10.358;2023-02-13T13:35:32;10.70;99.90
22850;DHT22;11591;44.792;10.358;2023-02-13T13:38:14;10.80;99.90
22850;DHT22;11591;44.792;10.358;2023-02-13T13:41:13;10.90;99.90
22850;DHT22;11591;44.792;10.358;2023-02-13T13:43:57;10.90;99.90
22850;DHT22;11591;44.792;10.358;2023-02-13T13:49:16;11.00;99.90
22850;DHT22;11591;44.792;10.358;2023-02-13T13:51:45;11.10;99.90
22850;DHT22;11591;44.792;10.358;2023-02-13T14:07:37;13.60;99.90
22850;DHT22;11591;44.792;10.358;2023-02-13T14:10:04;14.30;99.90
22850;DHT22;11591;44.792;10.358;2023-02-13T14:14:57;15.50;99.90
22850;DHT22;11591;44.792;10.358;2023-02-13T14:23:29;16.60;99.90
22850;DHT22;11591;44.792;10.358;2023-02-13T14:28:55;16.90;99.90
22850;DHT22;11591;44.792;10.358;2023-02-13T14:31:34;17.00;99.90
22850;DHT22;11591;44.792;10.358;2023-02-13T14:36:38;16.90;99.90
22850;DHT22;11591;44.792;10.358;2023-02-13T14:42:25;17.00;99.90
22850;DHT22;11591;44.792;10.358;2023-02-13T14:44:54;16.90;99.90
22850;DHT22;11591;44.792;10.358;2023-02-13T14:47:30;16.70;99.90
22850;DHT22;11591;44.792;10.358;2023-02-13T14:50:01;16.60;99.90
22850;DHT22;11591;44.792;10.358;2023-02-13T14:52:33;16.60;99.90
22850;DHT22;11591;44.792;10.358;2023-02-13T14:57:31;16.60;99.90
22850;DHT22;11591;44.792;10.358;2023-02-13T15:00:06;16.60;99.90
22850;DHT22;11591;44.792;10.358;2023-02-13T15:02:41;16.60;99.90
22850;DHT22;11591;44.792;10.358;2023-02-13T15:05:13;16.70;99.90
22850;DHT22;11591;44.792;10.358;2023-02-13T15:07:51;16.60;99.90
22850;DHT22;11591;44.792;10.358;2023-02-13T15:10:44;16.60;99.90
22850;DHT22;11591;44.792;10.358;2023-02-13T15:13:25;16.50;99.90
22850;DHT22;11591;44.792;10.358;2023-02-13T15:16:03;16.50;99.90
22850;DHT22;11591;44.792;10.358;2023-02-13T15:18:50;16.40;99.90
22850;DHT22;11591;44.792;10.358;2023-02-13T15:21:22;16.40;99.90
22850;DHT22;11591;44.792;10.358;2023-02-13T15:23:53;16.30;99.90
22850;DHT22;11591;44.792;10.358;2023-02-13T15:26:22;16.30;99.90
22850;DHT22;11591;44.792;10.358;2023-02-13T15:29:01;16.30;99.90
22850;DHT22;11591;44.792;10.358;2023-02-13T15:31:32;16.30;99.90
22850;DHT22;11591;44.792;10.358;2023-02-13T15:33:58;16.30;99.90
22850;DHT22;11591;44.792;10.358;2023-02-13T15:36:34;16.20;99.90
22850;DHT22;11591;44.792;10.358;2023-02-13T15:39:04;16.10;99.90
22850;DHT22;11591;44.792;10.358;2023-02-13T15:41:46;15.90;99.90
22850;DHT22;11591;44.792;10.358;2023-02-13T15:44:28;15.70;99.90
22850;DHT22;11591;44.792;10.358;2023-02-13T15:47:07;15.60;99.90
22850;DHT22;11591;44.792;10.358;2023-02-13T15:49:46;15.50;99.90
22850;DHT22;11591;44.792;10.358;2023-02-13T15:52:30;15.40;99.90
22850;DHT22;11591;44.792;10.358;2023-02-13T15:54:57;15.30;99.90
22850;DHT22;11591;44.792;10.358;2023-02-13T15:57:25;15.20;99.90
22850;DHT22;11591;44.792;10.358;2023-02-13T15:59:53;15.10;99.90
22850;DHT22;11591;44.792;10.358;2023-02-13T16:02:27;15.10;99.90
22850;DHT22;11591;44.792;10.358;2023-02-13T16:04:54;15.10;99.90
22850;DHT22;11591;44.792;10.358;2023-02-13T16:07:21;15.00;99.90
22850;DHT22;11591;44.792;10.358;2023-02-13T16:09:47;14.90;99.90
22850;DHT22;11591;44.792;10.358;2023-02-13T16:14:51;14.60;99.90
22850;DHT22;11591;44.792;10.358;2023-02-13T16:17:38;14.50;99.90
22850;DHT22;11591;44.792;10.358;2023-02-13T16:22:45;14.30;99.90
22850;DHT22;11591;44.792;10.358;2023-02-13T16:27:52;13.90;99.90
22850;DHT22;11591;44.792;10.358;2023-02-13T16:30:24;13.80;99.90
22850;DHT22;11591;44.792;10.358;2023-02-13T16:32:50;13.60;99.90
22850;DHT22;11591;44.792;10.358;2023-02-13T16:35:28;13.50;99.90
22850;DHT22;11591;44.792;10.358;2023-02-13T16:37:59;13.30;99.90
22850;DHT22;11591;44.792;10.358;2023-02-13T16:54:15;12.30;99.90
22850;DHT22;11591;44.792;10.358;2023-02-13T16:56:47;12.20;99.90
22850;DHT22;11591;44.792;10.358;2023-02-13T17:01:45;12.00;99.90
22850;DHT22;11591;44.792;10.358;2023-02-13T17:04:23;11.90;99.90
22850;DHT22;11591;44.792;10.358;2023-02-13T17:06:55;11.80;99.90
22850;DHT22;11591;44.792;10.358;2023-02-13T17:09:21;11.70;99.90
22850;DHT22;11591;44.792;10.358;2023-02-13T17:11:52;11.60;99.90
22850;DHT22;11591;44.792;10.358;2023-02-13T17:14:18;11.50;99.90
22850;DHT22;11591;44.792;10.358;2023-02-13T17:16:46;11.50;99.90
22850;DHT22;11591;44.792;10.358;2023-02-13T17:19:12;11.40;99.90
22850;DHT22;11591;44.792;10.358;2023-02-13T17:21:38;11.30;99.90
22850;DHT22;11591;44.792;10.358;2023-02-13T17:24:05;11.30;99.90
22850;DHT22;11591;44.792;10.358;2023-02-13T17:26:31;11.20;99.90
22850;DHT22;11591;44.792;10.358;2023-02-13T17:28:57;11.20;99.90
22850;DHT22;11591;44.792;10.358;2023-02-13T17:31:23;11.10;99.90
22850;DHT22;11591;44.792;10.358;2023-02-13T17:33:49;11.00;99.90
22850;DHT22;11591;44.792;10.358;2023-02-13T17:36:14;11.00;99.90
22850;DHT22;11591;44.792;10.358;2023-02-13T17:38:40;10.90;99.90
22850;DHT22;11591;44.792;10.358;2023-02-13T17:41:13;10.90;99.90
22850;DHT22;11591;44.792;10.358;2023-02-13T17:43:39;10.90;99.90
22850;DHT22;11591;44.792;10.358;2023-02-13T17:46:04;10.90;99.90
22850;DHT22;11591;44.792;10.358;2023-02-13T17:48:30;10.80;99.90
22850;DHT22;11591;44.792;10.358;2023-02-13T17:50:56;10.70;99.90
22850;DHT22;11591;44.792;10.358;2023-02-13T17:53:24;10.70;99.90
22850;DHT22;11591;44.792;10.358;2023-02-13T17:55:51;10.60;99.90
22850;DHT22;11591;44.792;10.358;2023-02-13T17:58:17;10.60;99.90
22850;DHT22;11591;44.792;10.358;2023-02-13T18:00:43;10.60;99.90
22850;DHT22;11591;44.792;10.358;2023-02-13T18:03:10;10.50;99.90
22850;DHT22;11591;44.792;10.358;2023-02-13T18:05:36;10.50;99.90
22850;DHT22;11591;44.792;10.358;2023-02-13T18:08:02;10.40;99.90
22850;DHT22;11591;44.792;10.358;2023-02-13T18:10:30;10.40;99.90
22850;DHT22;11591;44.792;10.358;2023-02-13T18:12:57;10.30;99.90
22850;DHT22;11591;44.792;10.358;2023-02-13T18:15:29;10.30;99.90
22850;DHT22;11591;44.792;10.358;2023-02-13T18:17:55;10.20;99.90
22850;DHT22;11591;44.792;10.358;2023-02-13T18:20:21;10.20;99.90
22850;DHT22;11591;44.792;10.358;2023-02-13T18:22:48;10.10;99.90
22850;DHT22;11591;44.792;10.358;2023-02-13T18:25:18;10.10;99.90
22850;DHT22;11591;44.792;10.358;2023-02-13T18:27:45;10.10;99.90
22850;DHT22;11591;44.792;10.358;2023-02-13T18:30:12;10.00;99.90
22850;DHT22;11591;44.792;10.358;2023-02-13T18:32:38;10.00;99.90
22850;DHT22;11591;44.792;10.358;2023-02-13T18:35:05;9.90;99.90
22850;DHT22;11591;44.792;10.358;2023-02-13T18:37:32;9.80;99.90
22850;DHT22;11591;44.792;10.358;2023-02-13T18:39:58;9.70;99.90
22850;DHT22;11591;44.792;10.358;2023-02-13T18:42:25;9.60;99.90
22850;DHT22;11591;44.792;10.358;2023-02-13T18:44:56;9.60;99.90
22850;DHT22;11591;44.792;10.358;2023-02-13T18:47:22;9.40;99.90
22850;DHT22;11591;44.792;10.358;2023-02-13T18:49:48;9.40;99.90
22850;DHT22;11591;44.792;10.358;2023-02-13T18:52:14;9.40;99.90
22850;DHT22;11591;44.792;10.358;2023-02-13T18:54:40;9.30;99.90